Terminal Aerodrome Forecast
Issued by NWS

Home | Current Version | Previous Version | Text Only | Print | Product List | Glossary On
Versions: 1 2 3 4 5 6 7 8 9 10 11 12 13 14 15 16 17 18 19 20 21 22 23 24
000
FTPA31 PHFO 172300 RRA
TAFOGG
TAF
PHOG 172341Z 1800/1824 06020G30KT P6SM FEW040
     FM180500 06012G18KT P6SM FEW060
     FM181900 06022G30KT P6SM FEW040 SCT060
      AMD LTD TO WX VIS AND WIND 1809/1816=

USA.gov is the U.S. government's official web portal to all federal, state and local government web resources and services.